createdAt,value
2022-11-18T00:01:08.160Z,19.90
2022-11-18T00:03:35.150Z,19.90
2022-11-18T00:06:02.068Z,19.90
2022-11-18T00:08:28.674Z,19.90
2022-11-18T00:10:55.245Z,19.90
2022-11-18T00:13:40.478Z,19.90
2022-11-18T00:16:10.626Z,19.90
2022-11-18T00:18:37.736Z,19.90
2022-11-18T00:21:10.910Z,19.90
2022-11-18T00:23:37.948Z,19.90
2022-11-18T00:26:04.562Z,19.90
2022-11-18T00:28:31.595Z,19.90
2022-11-18T00:31:08.309Z,19.90
2022-11-18T00:33:36.868Z,19.90
2022-11-18T00:36:03.998Z,19.90
2022-11-18T00:38:30.619Z,19.90
2022-11-18T00:41:01.183Z,20.00
2022-11-18T00:43:27.804Z,19.90
2022-11-18T00:45:54.498Z,19.90
2022-11-18T00:48:21.935Z,19.90
2022-11-18T00:50:49.474Z,19.90
2022-11-18T00:53:16.432Z,19.90
2022-11-18T00:55:43.299Z,20.00
2022-11-18T00:58:10.182Z,19.90
2022-11-18T01:00:36.738Z,19.90
2022-11-18T01:03:03.253Z,19.90
2022-11-18T01:05:29.852Z,19.90
2022-11-18T01:07:56.454Z,19.90
2022-11-18T01:10:23.083Z,19.90
2022-11-18T01:13:08.169Z,19.90
2022-11-18T01:15:41.213Z,19.90
2022-11-18T01:18:07.809Z,19.90
2022-11-18T01:20:34.822Z,19.90
2022-11-18T01:23:01.592Z,19.90
2022-11-18T01:25:28.251Z,20.00
2022-11-18T01:27:55.174Z,19.90
2022-11-18T01:30:22.896Z,19.90
2022-11-18T01:32:49.586Z,19.90
2022-11-18T01:35:16.409Z,19.90
2022-11-18T01:37:43.000Z,19.90
2022-11-18T01:40:11.124Z,19.90
2022-11-18T01:42:38.524Z,19.90
2022-11-18T01:45:09.746Z,19.90
2022-11-18T01:47:49.242Z,19.90
2022-11-18T01:50:19.989Z,19.90
2022-11-18T01:52:51.614Z,19.90
2022-11-18T01:55:29.753Z,19.90
2022-11-18T01:58:07.564Z,19.90
2022-11-18T02:00:34.687Z,19.90
2022-11-18T02:03:02.480Z,19.90
2022-11-18T02:05:30.573Z,20.00
2022-11-18T02:07:59.686Z,20.00
2022-11-18T02:10:26.593Z,19.90
2022-11-18T02:12:54.377Z,19.90
2022-11-18T02:15:47.745Z,19.90
2022-11-18T02:18:39.069Z,19.90
2022-11-18T02:21:26.941Z,19.90
2022-11-18T02:24:06.111Z,20.00
2022-11-18T02:27:23.650Z,20.00
2022-11-18T02:30:04.874Z,19.90
2022-11-18T02:32:55.653Z,19.90
2022-11-18T02:35:27.861Z,20.00
2022-11-18T02:38:17.496Z,19.90
2022-11-18T02:40:52.174Z,19.90
2022-11-18T02:43:27.912Z,20.00
2022-11-18T02:46:00.024Z,19.90
2022-11-18T02:48:29.049Z,19.90
2022-11-18T02:50:56.471Z,20.00
2022-11-18T02:53:25.429Z,19.90
2022-11-18T02:55:53.450Z,19.90
2022-11-18T02:58:21.153Z,20.00
2022-11-18T03:00:59.480Z,20.00
2022-11-18T03:03:32.479Z,19.90
2022-11-18T03:06:23.008Z,20.00
2022-11-18T03:09:02.984Z,19.90
2022-11-18T03:11:33.895Z,19.90
2022-11-18T03:14:14.381Z,19.90
2022-11-18T03:16:53.873Z,19.90
2022-11-18T03:19:42.231Z,19.90
2022-11-18T03:22:16.552Z,19.90
2022-11-18T03:24:50.608Z,19.90
2022-11-18T03:27:24.265Z,19.90
2022-11-18T03:30:12.621Z,20.00
2022-11-18T03:32:43.977Z,20.00
2022-11-18T03:35:16.750Z,20.00
2022-11-18T03:37:44.528Z,20.00
2022-11-18T03:40:21.316Z,20.00
2022-11-18T03:42:56.723Z,20.00
2022-11-18T03:45:33.641Z,20.00
2022-11-18T03:48:12.624Z,19.90
2022-11-18T03:51:06.571Z,20.00
2022-11-18T03:53:36.376Z,20.00
2022-11-18T03:56:15.816Z,20.00
2022-11-18T03:59:11.400Z,20.00
2022-11-18T04:01:53.997Z,20.00
2022-11-18T04:04:21.581Z,20.00
2022-11-18T04:07:00.723Z,20.00
2022-11-18T04:09:33.829Z,20.00
2022-11-18T04:12:05.426Z,20.00
2022-11-18T04:14:35.457Z,20.00
2022-11-18T04:17:26.605Z,20.00
2022-11-18T04:19:53.449Z,20.00
2022-11-18T04:22:20.243Z,19.90
2022-11-18T04:24:47.217Z,20.00
2022-11-18T04:27:14.190Z,20.00
2022-11-18T04:29:40.812Z,20.10
2022-11-18T04:32:07.694Z,20.00
2022-11-18T04:34:34.367Z,20.00
2022-11-18T04:37:01.065Z,20.00
2022-11-18T04:39:27.796Z,20.00
2022-11-18T04:41:57.521Z,20.00
2022-11-18T04:44:29.929Z,20.50
2022-11-18T04:46:57.364Z,20.10
2022-11-18T04:49:24.334Z,20.00
2022-11-18T04:51:51.390Z,20.00
2022-11-18T04:54:18.851Z,20.10
2022-11-18T04:56:49.114Z,20.10
2022-11-18T04:59:17.969Z,20.00
2022-11-18T05:01:44.714Z,20.00
2022-11-18T05:04:15.176Z,20.00
2022-11-18T05:06:41.703Z,20.00
2022-11-18T05:09:08.667Z,20.00
2022-11-18T05:11:53.795Z,20.10
2022-11-18T05:14:20.362Z,20.10
2022-11-18T05:16:46.852Z,20.00
2022-11-18T05:19:13.373Z,20.10
2022-11-18T05:21:39.931Z,20.00
2022-11-18T05:24:06.713Z,20.10
2022-11-18T05:26:33.402Z,20.10
2022-11-18T05:29:00.046Z,20.10
2022-11-18T05:31:26.627Z,20.10
2022-11-18T05:33:53.153Z,20.10
2022-11-18T05:36:20.638Z,20.10
2022-11-18T05:38:47.270Z,20.10
2022-11-18T05:41:33.784Z,20.10
2022-11-18T05:44:00.619Z,20.20
2022-11-18T05:46:27.525Z,20.20
2022-11-18T05:48:54.128Z,20.20
2022-11-18T05:51:20.730Z,20.20
2022-11-18T05:53:51.297Z,20.20
2022-11-18T05:56:17.782Z,20.20
2022-11-18T05:58:44.327Z,20.20
2022-11-18T06:01:11.672Z,20.10
2022-11-18T06:03:39.508Z,20.10
2022-11-18T06:06:07.425Z,20.20
2022-11-18T06:08:36.621Z,20.10
2022-11-18T06:11:03.328Z,20.10
2022-11-18T06:13:33.165Z,20.10
2022-11-18T06:15:59.989Z,20.10
2022-11-18T06:18:28.749Z,20.10
2022-11-18T06:20:57.959Z,20.10
2022-11-18T06:23:24.525Z,20.10
2022-11-18T06:25:51.146Z,20.10
2022-11-18T06:28:17.971Z,20.10
2022-11-18T06:30:44.678Z,20.10
2022-11-18T06:33:11.319Z,20.10
2022-11-18T06:35:37.868Z,20.10
2022-11-18T06:38:04.506Z,20.10
2022-11-18T06:40:34.768Z,20.00
2022-11-18T06:43:26.625Z,20.10
2022-11-18T06:46:13.448Z,20.10
2022-11-18T06:48:40.019Z,20.10
2022-11-18T06:51:07.192Z,20.00
2022-11-18T06:53:34.297Z,20.10
2022-11-18T06:56:04.449Z,20.00
2022-11-18T06:58:31.092Z,20.10
2022-11-18T07:00:57.761Z,20.00
2022-11-18T07:03:24.407Z,20.00
2022-11-18T07:05:50.973Z,20.10
2022-11-18T07:08:17.499Z,20.00
2022-11-18T07:10:51.486Z,20.00
2022-11-18T07:13:18.020Z,20.00
2022-11-18T07:15:44.512Z,20.00
2022-11-18T07:18:11.042Z,20.00
2022-11-18T07:20:37.578Z,20.00
2022-11-18T07:23:04.088Z,20.00
2022-11-18T07:25:30.630Z,20.00
2022-11-18T07:27:58.082Z,20.00
2022-11-18T07:30:24.580Z,20.00
2022-11-18T07:32:51.168Z,20.00
2022-11-18T07:35:18.833Z,20.00
2022-11-18T07:37:46.497Z,20.00
2022-11-18T07:40:13.014Z,20.00
2022-11-18T07:42:42.606Z,20.00
2022-11-18T07:45:12.359Z,20.00
2022-11-18T07:47:38.998Z,19.90
2022-11-18T07:50:05.725Z,20.00
2022-11-18T07:52:32.261Z,20.00
2022-11-18T07:54:58.812Z,20.00
2022-11-18T07:57:25.453Z,20.00
2022-11-18T07:59:52.152Z,20.00
2022-11-18T08:02:18.669Z,20.00
2022-11-18T08:04:45.197Z,20.00
2022-11-18T08:07:11.841Z,20.00
2022-11-18T08:09:38.454Z,20.00
2022-11-18T08:12:05.198Z,19.90
2022-11-18T08:14:31.701Z,20.00
2022-11-18T08:16:58.281Z,20.00
2022-11-18T08:19:24.781Z,20.00
2022-11-18T08:21:51.379Z,20.00
2022-11-18T08:24:17.928Z,20.00
2022-11-18T08:26:45.204Z,20.00
2022-11-18T08:29:11.758Z,20.00
2022-11-18T08:31:38.450Z,20.00
2022-11-18T08:34:06.375Z,20.00
2022-11-18T08:36:34.157Z,19.90
2022-11-18T08:39:01.650Z,19.90
2022-11-18T08:41:32.507Z,19.90
2022-11-18T08:43:59.255Z,20.00
2022-11-18T08:46:25.763Z,19.90
2022-11-18T08:48:52.280Z,19.90
2022-11-18T08:51:18.819Z,20.00
2022-11-18T08:53:45.404Z,19.90
2022-11-18T08:56:16.175Z,19.90
2022-11-18T08:58:42.825Z,19.90
2022-11-18T09:01:09.541Z,19.90
2022-11-18T09:03:36.156Z,19.90
2022-11-18T09:06:09.802Z,19.90
2022-11-18T09:08:41.561Z,19.90
2022-11-18T09:11:09.811Z,19.90
2022-11-18T09:14:14.239Z,19.90
2022-11-18T09:16:27.882Z,19.90
2022-11-18T09:18:55.685Z,19.90
2022-11-18T09:21:22.233Z,19.90
2022-11-18T09:23:48.816Z,19.90
2022-11-18T09:26:16.710Z,19.90
2022-11-18T09:28:43.375Z,19.90
2022-11-18T09:31:11.672Z,19.90
2022-11-18T09:33:38.736Z,19.90
2022-11-18T09:36:05.996Z,19.90
2022-11-18T09:38:32.721Z,19.80
2022-11-18T09:41:05.717Z,19.80
2022-11-18T09:43:35.238Z,19.80
2022-11-18T09:46:08.694Z,19.80
2022-11-18T09:48:55.366Z,19.80
2022-11-18T09:51:25.165Z,19.80
2022-11-18T09:53:51.781Z,19.80
2022-11-18T09:56:27.307Z,19.80
2022-11-18T09:58:54.337Z,19.90
2022-11-18T10:01:21.509Z,19.80
2022-11-18T10:03:48.357Z,19.80
2022-11-18T10:06:19.183Z,19.80
2022-11-18T10:09:05.449Z,19.80
2022-11-18T10:11:50.511Z,19.80
2022-11-18T10:14:18.631Z,19.80
2022-11-18T10:16:45.301Z,19.80
2022-11-18T10:19:12.170Z,19.80
2022-11-18T10:21:41.425Z,19.80
2022-11-18T10:24:13.126Z,19.80
2022-11-18T10:26:40.920Z,19.80
2022-11-18T10:29:09.881Z,19.80
2022-11-18T10:31:37.305Z,19.80
2022-11-18T10:34:03.894Z,19.80
2022-11-18T10:36:32.272Z,19.80
2022-11-18T10:39:09.291Z,19.80
2022-11-18T10:41:44.345Z,19.80
2022-11-18T10:44:27.461Z,19.80
2022-11-18T10:46:54.015Z,19.80
2022-11-18T10:49:20.694Z,19.80
2022-11-18T10:52:05.453Z,19.80
2022-11-18T10:54:31.991Z,19.80
2022-11-18T10:57:10.983Z,19.80
2022-11-18T10:59:51.136Z,19.80
2022-11-18T11:02:18.929Z,19.80
2022-11-18T11:04:46.301Z,19.80
2022-11-18T11:07:17.954Z,19.80
2022-11-18T11:09:45.376Z,19.80
2022-11-18T11:12:17.390Z,19.80
2022-11-18T11:14:43.928Z,19.80
2022-11-18T11:17:15.462Z,19.80
2022-11-18T11:19:45.615Z,19.80
2022-11-18T11:22:12.592Z,19.80
2022-11-18T11:24:39.350Z,19.80
2022-11-18T11:30:18.327Z,19.80
2022-11-18T11:32:44.850Z,19.80
2022-11-18T11:35:17.623Z,19.80
2022-11-18T11:37:55.878Z,19.80
2022-11-18T11:40:29.528Z,19.80
2022-11-18T11:42:59.635Z,19.80
2022-11-18T11:45:35.224Z,19.80
2022-11-18T11:48:10.884Z,19.70
2022-11-18T11:50:59.995Z,19.70
2022-11-18T11:53:41.989Z,19.80
2022-11-18T11:56:22.888Z,19.70
2022-11-18T11:58:58.808Z,19.80
2022-11-18T12:01:37.409Z,19.70
2022-11-18T12:04:06.936Z,19.80
2022-11-18T12:06:33.541Z,19.70
2022-11-18T12:09:21.786Z,19.80
2022-11-18T12:11:55.007Z,19.80
2022-11-18T12:14:21.579Z,19.70
2022-11-18T12:16:54.048Z,19.70
2022-11-18T12:19:21.770Z,19.70
2022-11-18T12:21:54.564Z,19.70
2022-11-18T12:24:27.312Z,19.70
2022-11-18T12:26:53.879Z,19.70
2022-11-18T12:29:20.684Z,19.70
2022-11-18T12:31:57.862Z,19.70
2022-11-18T12:34:27.351Z,19.70
2022-11-18T12:36:54.131Z,19.70
2022-11-18T12:39:23.628Z,19.70
2022-11-18T12:42:08.869Z,19.70
2022-11-18T12:44:35.790Z,19.70
2022-11-18T12:47:03.420Z,19.70
2022-11-18T12:49:29.884Z,19.70
2022-11-18T12:51:57.469Z,19.70
2022-11-18T12:54:34.995Z,19.70
2022-11-18T12:57:03.273Z,19.70
2022-11-18T12:59:32.039Z,19.70
2022-11-18T13:02:02.531Z,19.70
2022-11-18T13:04:29.038Z,19.70
2022-11-18T13:07:00.054Z,19.70
2022-11-18T13:09:29.181Z,19.70
2022-11-18T13:12:00.238Z,19.70
2022-11-18T13:14:52.314Z,19.70
2022-11-18T13:17:54.627Z,19.70
2022-11-18T13:20:29.270Z,19.70
2022-11-18T13:23:15.441Z,19.70
2022-11-18T13:25:45.022Z,19.70
2022-11-18T13:28:18.897Z,19.70
2022-11-18T13:30:52.375Z,19.70
2022-11-18T13:33:18.991Z,19.70
2022-11-18T13:35:45.588Z,19.70
2022-11-18T13:38:24.426Z,19.70
2022-11-18T13:41:08.236Z,19.60
2022-11-18T13:43:35.302Z,19.60
2022-11-18T13:46:04.776Z,19.60
2022-11-18T13:48:32.730Z,19.60
2022-11-18T13:51:00.094Z,19.60
2022-11-18T13:53:26.861Z,19.70
2022-11-18T13:55:56.705Z,19.60
2022-11-18T13:59:10.452Z,19.60
2022-11-18T14:01:28.246Z,19.70
2022-11-18T14:03:59.161Z,19.60
2022-11-18T14:06:25.666Z,19.60
2022-11-18T14:09:02.822Z,19.70
2022-11-18T14:11:36.826Z,19.70
2022-11-18T14:14:03.453Z,19.60
2022-11-18T14:16:31.838Z,19.60
2022-11-18T14:18:58.400Z,19.70
2022-11-18T14:21:32.188Z,19.60
2022-11-18T14:23:59.014Z,19.60
2022-11-18T14:26:29.335Z,19.60
2022-11-18T14:28:57.635Z,19.70
2022-11-18T14:31:25.267Z,19.60
2022-11-18T14:34:10.514Z,19.60
2022-11-18T14:36:37.038Z,19.60
2022-11-18T14:39:25.998Z,19.60
2022-11-18T14:41:53.685Z,19.60
2022-11-18T14:44:21.419Z,19.70
2022-11-18T14:46:55.651Z,19.60
2022-11-18T14:49:23.634Z,19.60
2022-11-18T14:51:53.998Z,19.60
2022-11-18T14:54:26.435Z,19.60
2022-11-18T14:57:03.762Z,19.60
2022-11-18T14:59:30.343Z,19.60
2022-11-18T15:01:57.140Z,19.60
2022-11-18T15:04:25.148Z,19.60
2022-11-18T15:06:51.703Z,19.60
2022-11-18T15:09:18.371Z,19.60
2022-11-18T15:11:44.936Z,19.60
2022-11-18T15:14:11.520Z,19.60
2022-11-18T15:16:38.075Z,19.60
2022-11-18T15:19:05.740Z,19.60
2022-11-18T15:21:32.438Z,19.60
2022-11-18T15:23:59.031Z,19.50
2022-11-18T15:26:35.887Z,19.60
2022-11-18T15:29:03.219Z,19.60
2022-11-18T15:31:29.876Z,19.50
2022-11-18T15:33:59.793Z,19.50
2022-11-18T15:36:28.762Z,19.60
2022-11-18T15:38:55.294Z,19.60
2022-11-18T15:41:21.912Z,19.50
2022-11-18T15:43:49.045Z,19.50
2022-11-18T15:46:19.070Z,19.50
2022-11-18T15:48:45.691Z,19.50
2022-11-18T15:51:12.639Z,19.50
2022-11-18T15:53:39.519Z,19.50
2022-11-18T15:56:24.248Z,19.50
2022-11-18T15:58:56.782Z,19.50
2022-11-18T16:01:24.665Z,19.50
2022-11-18T16:03:51.367Z,19.50
2022-11-18T16:06:18.133Z,19.50
2022-11-18T16:08:44.661Z,19.50
2022-11-18T16:11:33.442Z,19.50
2022-11-18T16:14:04.054Z,19.50
2022-11-18T16:16:31.239Z,19.50
2022-11-18T16:18:58.460Z,19.50
2022-11-18T16:21:25.232Z,19.50
2022-11-18T16:23:54.848Z,19.50
2022-11-18T16:26:21.384Z,19.50
2022-11-18T16:28:47.966Z,19.50
2022-11-18T16:31:33.147Z,19.50
2022-11-18T16:33:59.704Z,19.50
2022-11-18T16:36:27.069Z,19.50
2022-11-18T16:38:53.947Z,19.50
2022-11-18T16:41:32.609Z,19.50
2022-11-18T16:44:00.042Z,19.50
2022-11-18T16:46:27.078Z,19.50
2022-11-18T16:48:53.646Z,19.40
2022-11-18T16:51:21.368Z,19.50
2022-11-18T16:53:52.871Z,19.40
2022-11-18T16:56:23.393Z,19.40
2022-11-18T16:58:49.985Z,19.50
2022-11-18T17:01:20.984Z,19.40
2022-11-18T17:03:50.921Z,19.50
2022-11-18T17:06:17.761Z,19.50
2022-11-18T17:08:44.580Z,19.40
2022-11-18T17:11:11.698Z,18.60
2022-11-18T17:13:39.649Z,17.20
2022-11-18T17:16:10.102Z,17.20
2022-11-18T17:18:37.131Z,17.90
2022-11-18T17:21:06.039Z,18.50
2022-11-18T17:23:32.752Z,18.80
2022-11-18T17:26:00.972Z,19.00
2022-11-18T17:28:31.940Z,19.00
2022-11-18T17:31:04.392Z,19.30
2022-11-18T17:33:31.055Z,19.40
2022-11-18T17:36:02.407Z,19.50
2022-11-18T17:38:30.337Z,19.50
2022-11-18T17:41:41.727Z,19.60
2022-11-18T17:44:09.663Z,19.60
2022-11-18T17:46:38.456Z,19.60
2022-11-18T17:49:10.425Z,19.60
2022-11-18T17:51:37.149Z,19.70
2022-11-18T17:54:03.994Z,19.80
2022-11-18T17:56:30.638Z,19.80
2022-11-18T17:58:57.260Z,19.90
2022-11-18T18:01:24.099Z,19.80
2022-11-18T18:03:50.802Z,19.80
2022-11-18T18:06:17.467Z,19.90
2022-11-18T18:08:44.305Z,19.90
2022-11-18T18:11:12.877Z,20.00
2022-11-18T18:13:58.947Z,19.80
2022-11-18T18:16:26.211Z,19.80
2022-11-18T18:18:53.099Z,19.80
2022-11-18T18:21:20.240Z,19.90
2022-11-18T18:23:47.196Z,19.90
2022-11-18T18:26:13.885Z,19.80
2022-11-18T18:28:40.526Z,19.80
2022-11-18T18:31:08.451Z,19.80
2022-11-18T18:33:36.223Z,19.80
2022-11-18T18:36:04.723Z,19.80
2022-11-18T18:38:32.085Z,20.10
2022-11-18T18:41:02.554Z,19.80
2022-11-18T18:43:29.089Z,19.80
2022-11-18T18:46:20.982Z,19.80
2022-11-18T18:48:47.743Z,19.90
2022-11-18T18:51:14.423Z,20.00
2022-11-18T18:53:41.012Z,19.90
2022-11-18T18:56:07.696Z,19.90
2022-11-18T18:58:34.577Z,19.90
2022-11-18T19:01:07.029Z,20.00
2022-11-18T19:03:33.652Z,20.00
2022-11-18T19:08:48.391Z,20.00
2022-11-18T19:11:34.611Z,20.00
2022-11-18T19:14:02.074Z,20.00
2022-11-18T19:16:28.660Z,20.00
2022-11-18T19:18:56.226Z,20.10
2022-11-18T19:21:22.832Z,20.20
2022-11-18T19:23:49.402Z,19.80
2022-11-18T19:26:16.000Z,20.10
2022-11-18T19:28:42.830Z,20.20
2022-11-18T19:31:10.005Z,20.20
2022-11-18T19:33:37.014Z,20.20
2022-11-18T19:36:07.067Z,20.20
2022-11-18T19:38:36.318Z,20.20
2022-11-18T19:41:04.001Z,20.20
2022-11-18T19:43:30.606Z,20.20
2022-11-18T19:45:57.580Z,20.20
2022-11-18T19:48:24.361Z,20.20
2022-11-18T19:50:51.188Z,20.20
2022-11-18T19:53:33.055Z,20.20
2022-11-18T19:56:00.574Z,20.20
2022-11-18T19:58:27.217Z,20.20
2022-11-18T20:00:54.275Z,20.30
2022-11-18T20:03:20.835Z,20.30
2022-11-18T20:05:53.535Z,20.60
2022-11-18T20:08:20.805Z,20.30
2022-11-18T20:10:47.516Z,20.30
2022-11-18T20:13:14.880Z,20.30
2022-11-18T20:15:41.962Z,20.40
2022-11-18T20:18:08.667Z,20.30
2022-11-18T20:20:35.981Z,20.30
2022-11-18T20:23:02.687Z,20.30
2022-11-18T20:25:29.365Z,20.30
2022-11-18T20:27:56.020Z,20.30
2022-11-18T20:30:22.788Z,20.30
2022-11-18T20:32:49.330Z,20.30
2022-11-18T20:35:16.192Z,20.30
2022-11-18T20:37:42.861Z,20.30
2022-11-18T20:40:09.733Z,20.30
2022-11-18T20:42:54.995Z,20.30
2022-11-18T20:45:21.921Z,20.30
2022-11-18T20:47:48.547Z,20.30
2022-11-18T20:50:15.291Z,20.40
2022-11-18T20:52:41.949Z,20.40
2022-11-18T20:55:08.896Z,20.40
2022-11-18T20:57:35.433Z,20.40
2022-11-18T21:00:02.108Z,20.40
2022-11-18T21:02:31.752Z,20.50
2022-11-18T21:04:58.320Z,20.50
2022-11-18T21:07:25.026Z,20.40
2022-11-18T21:09:51.762Z,20.40
2022-11-18T21:12:18.430Z,20.40
2022-11-18T21:14:45.322Z,20.40
2022-11-18T21:17:11.880Z,20.30
2022-11-18T21:19:38.468Z,20.30
2022-11-18T21:22:05.028Z,20.30
2022-11-18T21:24:32.796Z,20.30
2022-11-18T21:27:00.431Z,20.30
2022-11-18T21:29:28.332Z,20.30
2022-11-18T21:31:55.344Z,20.30
2022-11-18T21:34:22.027Z,20.30
2022-11-18T21:36:54.362Z,20.30
2022-11-18T21:39:22.871Z,20.30
2022-11-18T21:41:54.866Z,20.30
2022-11-18T21:44:22.692Z,20.30
2022-11-18T21:46:49.277Z,20.30
2022-11-18T21:49:15.830Z,20.30
2022-11-18T21:51:43.740Z,20.20
2022-11-18T21:54:11.649Z,20.30
2022-11-18T21:56:38.271Z,20.20
2022-11-18T21:59:05.988Z,20.20
2022-11-18T22:01:33.309Z,20.20
2022-11-18T22:04:01.245Z,20.30
2022-11-18T22:06:32.622Z,20.40
2022-11-18T22:08:59.636Z,20.30
2022-11-18T22:11:26.265Z,20.30
2022-11-18T22:13:53.044Z,20.30
2022-11-18T22:16:22.261Z,20.30
2022-11-18T22:18:55.985Z,20.30
2022-11-18T22:21:23.784Z,20.30
2022-11-18T22:23:50.464Z,20.30
2022-11-18T22:26:18.398Z,20.30
2022-11-18T22:28:45.635Z,20.20
2022-11-18T22:31:22.117Z,20.30
2022-11-18T22:33:49.043Z,20.30
2022-11-18T22:36:16.236Z,20.30
2022-11-18T22:38:43.577Z,20.30
2022-11-18T22:41:31.376Z,20.30
2022-11-18T22:44:00.407Z,20.40
2022-11-18T22:46:30.738Z,20.40
2022-11-18T22:48:57.711Z,20.40
2022-11-18T22:51:24.472Z,20.40
2022-11-18T22:54:04.406Z,20.40
2022-11-18T22:56:37.808Z,20.40
2022-11-18T22:59:04.605Z,20.40
2022-11-18T23:01:31.160Z,20.40
2022-11-18T23:03:57.692Z,20.40
2022-11-18T23:06:24.195Z,20.40
2022-11-18T23:08:50.768Z,20.40
2022-11-18T23:11:39.531Z,20.40
2022-11-18T23:14:07.450Z,20.40
2022-11-18T23:16:38.934Z,20.50
2022-11-18T23:19:06.889Z,20.50
2022-11-18T23:21:33.621Z,20.50
2022-11-18T23:24:00.625Z,20.50
2022-11-18T23:26:28.747Z,20.50
2022-11-18T23:28:55.444Z,20.50
2022-11-18T23:31:23.699Z,20.50
2022-11-18T23:33:50.761Z,20.50
2022-11-18T23:36:18.503Z,20.50
2022-11-18T23:38:45.548Z,20.50
2022-11-18T23:41:13.061Z,20.50
2022-11-18T23:43:39.776Z,20.50
2022-11-18T23:46:07.287Z,20.50
2022-11-18T23:48:37.685Z,20.50
2022-11-18T23:51:04.289Z,20.60
2022-11-18T23:53:31.325Z,20.60
2022-11-18T23:55:58.063Z,20.60
2022-11-18T23:58:24.625Z,20.50
